Time;durP1;ratioP1;P1;durP2;ratioP2;P2;SDS_P1;SDS_P2;PMS_P1;PMS_P2;Temp;Humidity;BMP_temperature;BMP_pressure;BME280_temperature;BME280_humidity;BME280_pressure;Samples;Min_cycle;Max_cycle;Signal;HPM_P1;HPM_P2
2022/03/08 00:00:32;;;;;;;;;76.00;59.75;6.50;63.20;;;;;;5034304;28;8767;-68
2022/03/08 00:02:59;;;;;;;;;76.50;60.50;6.30;64.70;;;;;;5034728;28;9404;-68
2022/03/08 00:05:26;;;;;;;;;68.50;53.25;6.80;63.80;;;;;;5034279;28;8793;-69
2022/03/08 00:07:52;;;;;;;;;80.50;60.50;7.10;62.00;;;;;;5034531;28;8895;-70
2022/03/08 00:10:19;;;;;;;;;74.00;58.75;7.20;61.40;;;;;;5034271;28;8835;-69
2022/03/08 00:12:49;;;;;;;;;79.75;61.75;7.40;61.00;;;;;;5034241;28;8750;-68
2022/03/08 00:15:24;;;;;;;;;80.75;62.00;7.50;60.00;;;;;;5034111;28;8900;-69
2022/03/08 00:17:51;;;;;;;;;78.75;62.75;7.50;59.50;;;;;;5034212;28;8839;-68
2022/03/08 00:20:17;;;;;;;;;68.50;54.75;7.60;58.50;;;;;;5034231;28;8782;-67
2022/03/08 00:22:44;;;;;;;;;63.25;49.50;7.50;58.60;;;;;;5034257;28;8786;-67
2022/03/08 00:25:12;;;;;;;;;75.00;60.00;7.60;57.80;;;;;;5034483;28;8794;-68
2022/03/08 00:27:42;;;;;;;;;78.75;60.25;7.70;57.00;;;;;;5034348;28;8857;-68
2022/03/08 00:30:09;;;;;;;;;75.75;57.50;7.70;56.80;;;;;;5034120;28;8767;-69
2022/03/08 00:32:34;;;;;;;;;77.75;59.25;7.80;57.60;;;;;;5034205;28;8795;-68
2022/03/08 00:35:01;;;;;;;;;74.25;59.25;7.80;56.10;;;;;;5034176;28;8770;-68
2022/03/08 00:37:26;;;;;;;;;72.25;57.75;7.70;56.30;;;;;;5034062;28;8771;-67
2022/03/08 00:39:52;;;;;;;;;72.00;57.75;7.80;56.30;;;;;;5034025;28;8805;-68
2022/03/08 00:42:18;;;;;;;;;77.00;62.00;7.90;56.00;;;;;;5033977;28;8758;-67
2022/03/08 00:44:44;;;;;;;;;76.25;62.00;8.00;55.90;;;;;;5016839;28;8805;-68
2022/03/08 00:47:11;;;;;;;;;83.50;62.00;7.90;55.40;;;;;;5034001;28;8800;-68
2022/03/08 00:49:38;;;;;;;;;90.00;67.50;7.80;55.80;;;;;;5036893;28;8840;-69
2022/03/08 00:52:05;;;;;;;;;82.00;62.00;7.90;56.10;;;;;;5037795;28;8774;-69
2022/03/08 00:54:31;;;;;;;;;82.50;64.00;8.00;55.50;;;;;;5037611;28;8865;-67
2022/03/08 00:56:57;;;;;;;;;82.25;65.00;8.00;55.20;;;;;;5037728;28;8794;-69
2022/03/08 00:59:23;;;;;;;;;91.50;70.25;8.00;55.30;;;;;;5037966;28;8762;-68
2022/03/08 01:01:49;;;;;;;;;81.25;63.00;7.70;55.30;;;;;;5037633;28;8841;-67
2022/03/08 01:04:15;;;;;;;;;91.25;71.00;7.70;55.10;;;;;;5037443;28;8882;-67
2022/03/08 01:06:42;;;;;;;;;84.50;68.00;7.50;56.20;;;;;;5037618;28;8774;-66
2022/03/08 01:09:08;;;;;;;;;84.50;66.50;7.70;55.90;;;;;;5037643;28;8774;-67
2022/03/08 01:11:36;;;;;;;;;84.50;62.50;7.70;54.40;;;;;;5037418;28;8747;-68
2022/03/08 01:14:07;;;;;;;;;82.75;64.00;7.70;54.80;;;;;;5037572;28;9372;-67
2022/03/08 01:16:34;;;;;;;;;84.75;66.75;7.90;54.40;;;;;;5037224;28;8798;-69
2022/03/08 01:18:59;;;;;;;;;64.00;52.75;7.80;54.50;;;;;;5037229;28;8766;-68
2022/03/08 01:21:25;;;;;;;;;87.50;66.75;7.80;54.10;;;;;;5037264;28;8859;-67
2022/03/08 01:23:51;;;;;;;;;83.00;63.75;7.90;54.00;;;;;;5037199;28;8813;-67
2022/03/08 01:26:17;;;;;;;;;77.00;59.00;6.70;57.40;;;;;;5037211;28;8790;-69
2022/03/08 01:28:43;;;;;;;;;82.75;62.75;6.80;56.50;;;;;;5037137;28;8778;-68
2022/03/08 01:31:09;;;;;;;;;79.25;63.25;6.70;57.50;;;;;;5037084;28;8794;-68
2022/03/08 01:33:35;;;;;;;;;80.25;63.25;7.10;56.40;;;;;;5037041;28;8770;-69
2022/03/08 01:36:01;;;;;;;;;78.00;60.75;7.00;57.10;;;;;;5037047;28;8798;-67
2022/03/08 01:38:27;;;;;;;;;86.00;65.50;7.10;56.60;;;;;;5036999;28;8856;-68
2022/03/08 01:40:53;;;;;;;;;83.75;66.50;7.30;57.70;;;;;;5037102;28;8869;-66
2022/03/08 01:43:18;;;;;;;;;86.00;64.75;7.40;55.70;;;;;;5036909;28;9548;-69
2022/03/08 01:45:44;;;;;;;;;82.25;64.75;7.20;56.00;;;;;;5036797;28;8790;-68
2022/03/08 01:48:10;;;;;;;;;82.00;62.50;7.30;56.70;;;;;;5036717;28;8837;-68
2022/03/08 01:50:36;;;;;;;;;83.50;65.00;7.40;55.70;;;;;;5036930;28;8798;-67
2022/03/08 01:53:04;;;;;;;;;82.75;66.00;7.50;55.00;;;;;;5036496;28;8790;-66
2022/03/08 01:55:29;;;;;;;;;82.75;61.75;6.80;56.10;;;;;;5036400;28;8802;-68
2022/03/08 01:57:55;;;;;;;;;69.25;53.75;6.70;56.60;;;;;;5036477;28;8781;-67
2022/03/08 02:00:25;;;;;;;;;77.00;61.00;5.50;61.50;;;;;;5035777;28;8843;-66
2022/03/08 02:02:51;;;;;;;;;65.75;53.25;5.60;63.30;;;;;;5036300;28;8774;-69
2022/03/08 02:05:17;;;;;;;;;74.25;58.00;5.10;64.80;;;;;;5036661;28;9491;-67
2022/03/08 02:07:43;;;;;;;;;77.00;58.50;5.10;65.00;;;;;;5036662;28;8759;-68
2022/03/08 02:10:09;;;;;;;;;58.50;46.00;5.00;66.90;;;;;;5036340;28;9440;-68
2022/03/08 02:12:36;;;;;;;;;77.25;61.75;5.30;65.70;;;;;;5036648;28;8758;-69
2022/03/08 02:15:20;;;;;;;;;73.00;58.00;5.50;63.80;;;;;;5036206;28;8797;-68
2022/03/08 02:17:46;;;;;;;;;76.00;60.75;5.90;62.30;;;;;;5036585;28;8789;-69
2022/03/08 02:20:13;;;;;;;;;77.75;60.50;5.80;62.30;;;;;;5036143;28;8782;-69
2022/03/08 02:22:41;;;;;;;;;77.00;62.00;5.70;62.40;;;;;;5036372;28;8797;-70
2022/03/08 02:25:07;;;;;;;;;70.50;58.25;5.80;62.30;;;;;;5036634;28;8801;-67
2022/03/08 02:27:33;;;;;;;;;82.25;64.50;5.90;61.90;;;;;;5035979;28;8782;-69
2022/03/08 02:29:59;;;;;;;;;81.50;64.25;6.10;61.00;;;;;;5036146;28;9486;-68
2022/03/08 02:32:25;;;;;;;;;88.00;67.00;6.10;60.40;;;;;;5018347;28;8778;-68
2022/03/08 02:34:51;;;;;;;;;80.50;65.75;6.20;60.80;;;;;;5035850;28;8832;-67
2022/03/08 02:37:16;;;;;;;;;81.00;64.00;6.40;60.30;;;;;;5035636;28;8904;-70
2022/03/08 02:39:43;;;;;;;;;87.50;64.50;6.60;60.70;;;;;;5018297;28;8802;-69
2022/03/08 02:42:09;;;;;;;;;80.75;63.00;6.50;60.50;;;;;;5035803;28;8885;-69
2022/03/08 02:44:36;;;;;;;;;78.50;61.75;6.20;62.50;;;;;;5035718;28;8778;-68
2022/03/08 02:47:03;;;;;;;;;80.00;63.00;6.20;62.00;;;;;;5035934;28;8806;-69
2022/03/08 02:49:30;;;;;;;;;81.00;60.25;6.40;62.90;;;;;;5035596;28;8773;-70
2022/03/08 02:51:56;;;;;;;;;80.00;61.50;5.90;64.50;;;;;;5035597;28;8777;-69
2022/03/08 02:54:23;;;;;;;;;81.75;63.75;6.10;64.30;;;;;;5035248;28;8858;-67
2022/03/08 02:56:49;;;;;;;;;76.75;61.25;6.00;63.60;;;;;;5035726;28;8871;-69
2022/03/08 02:59:24;;;;;;;;;71.50;58.00;6.20;63.90;;;;;;5035418;28;8755;-70
2022/03/08 03:01:50;;;;;;;;;82.50;62.25;5.80;65.00;;;;;;5035611;28;8750;-68
2022/03/08 03:04:16;;;;;;;;;83.75;63.50;5.90;64.90;;;;;;5035620;28;8774;-70
2022/03/08 03:06:43;;;;;;;;;81.75;61.25;5.60;66.20;;;;;;5035300;28;8788;-69
2022/03/08 03:09:09;;;;;;;;;72.00;57.75;5.50;66.10;;;;;;5035589;28;8770;-69
2022/03/08 03:11:35;;;;;;;;;80.00;61.75;5.20;67.20;;;;;;5034711;28;8754;-68
2022/03/08 03:14:01;;;;;;;;;80.75;62.00;5.20;67.40;;;;;;5035041;28;8755;-70
2022/03/08 03:16:27;;;;;;;;;80.50;62.75;5.60;65.60;;;;;;5034996;28;8887;-69
2022/03/08 03:18:53;;;;;;;;;83.25;65.75;5.50;64.80;;;;;;5017590;28;8805;-70
2022/03/08 03:21:18;;;;;;;;;88.50;67.25;5.50;64.70;;;;;;5035115;28;8779;-69
2022/03/08 03:23:44;;;;;;;;;89.75;68.25;5.10;66.50;;;;;;5035059;28;8813;-69
2022/03/08 03:26:10;;;;;;;;;86.00;64.00;5.00;65.80;;;;;;5035000;28;8762;-68
2022/03/08 03:28:36;;;;;;;;;84.00;64.50;5.00;67.10;;;;;;5035199;28;8868;-70
2022/03/08 03:31:01;;;;;;;;;83.00;64.25;5.00;66.90;;;;;;5034871;28;8879;-68
2022/03/08 03:33:27;;;;;;;;;73.25;59.25;5.50;64.20;;;;;;5034798;28;8770;-69
2022/03/08 03:35:53;;;;;;;;;67.00;54.00;5.00;65.60;;;;;;5034694;28;8983;-69
2022/03/08 03:38:19;;;;;;;;;78.00;61.00;5.10;66.60;;;;;;5035093;28;8778;-68
2022/03/08 03:40:44;;;;;;;;;77.00;57.50;5.10;65.00;;;;;;5034762;28;8847;-68
2022/03/08 03:43:11;;;;;;;;;73.25;58.50;5.30;64.30;;;;;;5034718;28;8785;-70
2022/03/08 03:45:37;;;;;;;;;79.25;62.75;5.30;64.10;;;;;;5034681;28;8839;-70
2022/03/08 03:48:03;;;;;;;;;74.00;58.00;5.00;62.80;;;;;;5034557;28;8855;-68
2022/03/08 03:50:29;;;;;;;;;63.25;50.25;4.70;63.70;;;;;;5034665;28;8770;-70
2022/03/08 03:52:55;;;;;;;;;72.75;59.75;4.40;65.00;;;;;;5034582;28;8804;-69
2022/03/08 03:55:21;;;;;;;;;77.00;59.75;4.90;64.50;;;;;;5034305;28;8882;-69
2022/03/08 03:57:47;;;;;;;;;69.75;56.50;4.80;63.90;;;;;;5034412;28;8789;-68
2022/03/08 04:00:14;;;;;;;;;72.00;61.00;4.80;63.60;;;;;;5034771;28;8762;-69
2022/03/08 04:02:41;;;;;;;;;75.50;59.25;4.80;64.00;;;;;;5034436;28;8789;-68
2022/03/08 04:05:08;;;;;;;;;62.50;50.75;4.40;65.30;;;;;;5034442;28;8758;-68
2022/03/08 04:07:34;;;;;;;;;62.50;48.25;4.30;66.00;;;;;;5034654;28;8750;-67
2022/03/08 04:10:00;;;;;;;;;71.25;54.50;3.80;68.60;;;;;;5034313;28;8892;-69
2022/03/08 04:12:25;;;;;;;;;70.00;57.25;3.80;68.00;;;;;;5034308;28;8881;-68
2022/03/08 04:14:51;;;;;;;;;73.25;58.00;4.00;68.20;;;;;;5034196;28;8766;-67
2022/03/08 04:17:17;;;;;;;;;54.75;45.00;4.50;65.00;;;;;;5034386;28;8821;-68
2022/03/08 04:19:43;;;;;;;;;74.00;60.00;4.00;65.30;;;;;;5034260;28;9597;-67
2022/03/08 04:22:09;;;;;;;;;70.75;55.75;4.10;65.20;;;;;;5034242;28;8971;-68
2022/03/08 04:24:35;;;;;;;;;74.00;61.75;3.60;67.90;;;;;;5037332;28;8830;-69
2022/03/08 04:27:01;;;;;;;;;69.75;55.50;3.80;67.70;;;;;;5038715;28;8777;-70
2022/03/08 04:29:27;;;;;;;;;64.50;52.50;4.20;66.40;;;;;;5038564;28;9444;-69
2022/03/08 04:31:53;;;;;;;;;73.00;53.25;4.60;63.90;;;;;;5038477;28;8782;-69
2022/03/08 04:34:19;;;;;;;;;65.00;50.25;4.70;62.40;;;;;;5038220;28;8793;-69
2022/03/08 04:36:45;;;;;;;;;69.75;54.50;4.50;62.70;;;;;;5038135;28;8833;-68
2022/03/08 04:39:11;;;;;;;;;53.50;44.25;4.80;62.40;;;;;;5038177;28;8875;-69
2022/03/08 04:41:37;;;;;;;;;59.50;49.50;4.70;62.20;;;;;;5038391;28;8768;-67
2022/03/08 04:44:03;;;;;;;;;67.75;53.50;4.60;62.30;;;;;;5037977;28;8897;-69
2022/03/08 04:46:28;;;;;;;;;63.50;49.50;4.50;63.40;;;;;;5038067;28;8782;-68
2022/03/08 04:48:55;;;;;;;;;63.00;52.25;4.80;63.10;;;;;;5037936;28;8767;-69
2022/03/08 04:51:21;;;;;;;;;71.75;56.25;4.80;62.10;;;;;;5037879;28;8762;-68
2022/03/08 04:53:46;;;;;;;;;74.00;56.50;4.50;63.70;;;;;;5037582;28;8854;-69
2022/03/08 04:56:12;;;;;;;;;74.25;59.00;4.30;64.50;;;;;;5037695;28;8838;-67
2022/03/08 04:58:38;;;;;;;;;78.25;59.00;3.80;66.10;;;;;;5037723;28;8793;-67
2022/03/08 05:01:04;;;;;;;;;67.25;57.00;4.10;67.10;;;;;;5037698;28;8785;-67
2022/03/08 05:03:29;;;;;;;;;71.75;57.75;4.00;66.40;;;;;;5037896;28;8774;-69
2022/03/08 05:05:55;;;;;;;;;77.25;59.75;4.00;66.70;;;;;;5037869;28;8881;-68
2022/03/08 05:08:21;;;;;;;;;66.75;52.75;4.20;66.80;;;;;;5037840;28;8785;-69
2022/03/08 05:10:47;;;;;;;;;69.50;55.50;4.20;65.70;;;;;;5038099;28;8785;-67
2022/03/08 05:13:12;;;;;;;;;78.00;59.25;4.10;67.30;;;;;;5037408;28;9419;-69
2022/03/08 05:15:38;;;;;;;;;78.50;63.25;3.90;66.50;;;;;;5037399;28;8833;-70
2022/03/08 05:18:04;;;;;;;;;74.25;60.00;3.90;68.10;;;;;;5037365;28;8828;-67
2022/03/08 05:20:30;;;;;;;;;76.75;60.00;4.00;67.70;;;;;;5049810;28;8915;-67
2022/03/08 05:22:56;;;;;;;;;79.25;61.25;3.80;68.90;;;;;;5077431;28;8754;-68
2022/03/08 05:25:22;;;;;;;;;76.00;61.50;3.70;69.80;;;;;;5077124;28;8823;-67
2022/03/08 05:27:48;;;;;;;;;74.50;57.25;3.80;69.30;;;;;;5077181;28;8833;-68
2022/03/08 05:30:14;;;;;;;;;68.25;53.75;3.90;70.40;;;;;;5077089;28;8777;-68
2022/03/08 05:32:40;;;;;;;;;73.75;57.00;3.60;70.60;;;;;;5077272;28;8758;-69
2022/03/08 05:35:06;;;;;;;;;73.75;56.25;3.60;71.30;;;;;;5076181;28;9365;-68
2022/03/08 05:37:33;;;;;;;;;67.50;50.00;3.70;71.80;;;;;;5077190;28;8814;-70
2022/03/08 05:39:59;;;;;;;;;70.50;58.00;4.00;69.60;;;;;;5054654;28;8879;-66
2022/03/08 05:42:25;;;;;;;;;67.00;54.50;3.70;71.60;;;;;;5047790;28;8768;-67
2022/03/08 05:44:50;;;;;;;;;76.25;59.25;3.50;72.60;;;;;;5047356;28;8768;-67
2022/03/08 05:47:16;;;;;;;;;72.00;58.25;3.80;71.00;;;;;;5057024;28;8787;-66
2022/03/08 05:49:42;;;;;;;;;76.50;57.50;3.80;70.80;;;;;;5051597;28;9601;-66
2022/03/08 05:52:08;;;;;;;;;70.50;56.75;3.80;72.00;;;;;;5041807;28;8774;-67
2022/03/08 05:54:34;;;;;;;;;76.25;62.25;3.90;70.40;;;;;;5040499;28;8850;-69
2022/03/08 05:57:00;;;;;;;;;73.50;57.75;4.40;69.00;;;;;;5043694;28;8814;-67
2022/03/08 05:59:25;;;;;;;;;81.50;61.00;4.10;69.40;;;;;;5040985;28;8873;-65
2022/03/08 06:01:51;;;;;;;;;77.25;62.25;4.30;68.60;;;;;;5056415;28;8805;-72
2022/03/08 06:04:17;;;;;;;;;76.25;59.50;4.30;69.40;;;;;;5053941;28;8787;-75
2022/03/08 06:06:43;;;;;;;;;74.25;60.75;4.30;69.50;;;;;;5048380;28;8808;-72
2022/03/08 06:09:09;;;;;;;;;86.50;64.00;3.90;69.50;;;;;;5055869;28;8776;-68
2022/03/08 06:11:34;;;;;;;;;73.25;60.25;3.60;72.70;;;;;;5056029;28;8760;-67
2022/03/08 06:14:00;;;;;;;;;85.00;64.00;3.50;73.00;;;;;;5056575;28;8760;-70
2022/03/08 06:16:26;;;;;;;;;83.00;65.75;3.30;76.40;;;;;;5056343;28;8824;-68
2022/03/08 06:18:55;;;;;;;;;82.75;66.50;3.40;74.70;;;;;;5056191;28;9500;-68
2022/03/08 06:21:21;;;;;;;;;76.00;60.00;3.80;73.20;;;;;;5038942;28;8802;-69
2022/03/08 06:23:47;;;;;;;;;81.00;62.25;3.80;72.60;;;;;;5056298;28;9693;-63
2022/03/08 06:26:12;;;;;;;;;87.25;66.25;3.80;73.60;;;;;;5056289;28;8780;-63
2022/03/08 06:28:38;;;;;;;;;82.50;62.75;4.10;73.60;;;;;;5056460;28;8841;-63
2022/03/08 06:31:04;;;;;;;;;80.50;63.00;4.30;70.60;;;;;;5055966;28;9473;-62
2022/03/08 06:33:30;;;;;;;;;83.00;66.50;4.10;70.50;;;;;;5055971;28;8768;-62
2022/03/08 06:35:55;;;;;;;;;84.00;63.00;3.80;72.20;;;;;;5055796;28;8796;-63
2022/03/08 06:38:21;;;;;;;;;82.25;64.50;4.00;72.30;;;;;;5055780;28;8791;-62
2022/03/08 06:40:47;;;;;;;;;83.75;63.50;4.00;72.00;;;;;;5055444;28;8765;-63
2022/03/08 06:43:13;;;;;;;;;87.50;67.00;4.20;71.50;;;;;;5055525;28;8776;-63
2022/03/08 06:45:38;;;;;;;;;71.50;58.75;4.30;70.60;;;;;;5055608;28;8894;-62
2022/03/08 06:48:04;;;;;;;;;81.00;63.75;4.50;68.90;;;;;;5055622;28;8842;-63
2022/03/08 06:50:30;;;;;;;;;78.75;61.50;4.60;67.80;;;;;;5055574;28;8768;-63
2022/03/08 06:52:56;;;;;;;;;82.00;62.25;4.70;67.30;;;;;;5055571;28;9381;-63
2022/03/08 06:55:21;;;;;;;;;74.00;56.75;4.50;69.40;;;;;;5055226;28;8832;-63
2022/03/08 06:57:47;;;;;;;;;79.50;61.25;4.60;68.90;;;;;;5055393;28;8784;-63
2022/03/08 07:00:13;;;;;;;;;76.75;60.75;4.70;68.50;;;;;;5055608;28;8768;-63
2022/03/08 07:02:39;;;;;;;;;80.75;63.25;4.40;68.80;;;;;;5055159;28;8772;-63
2022/03/08 07:05:05;;;;;;;;;72.75;58.75;4.00;72.00;;;;;;5055449;28;8798;-63
2022/03/08 07:07:32;;;;;;;;;69.25;59.00;4.10;71.70;;;;;;5055502;28;8775;-63
2022/03/08 07:09:58;;;;;;;;;79.75;62.50;3.90;72.80;;;;;;5055450;28;8792;-62
2022/03/08 07:12:24;;;;;;;;;89.25;70.00;4.40;70.00;;;;;;5055119;28;8811;-63
2022/03/08 07:14:50;;;;;;;;;87.50;66.00;4.20;70.50;;;;;;5054980;28;8878;-63
2022/03/08 07:17:15;;;;;;;;;91.25;69.75;4.00;71.20;;;;;;5055243;28;8800;-63
2022/03/08 07:19:41;;;;;;;;;86.50;66.75;4.60;70.90;;;;;;5055230;28;8768;-63
2022/03/08 07:22:07;;;;;;;;;84.25;66.00;4.70;67.90;;;;;;5055236;28;8776;-63
2022/03/08 07:24:33;;;;;;;;;87.50;68.75;5.00;67.70;;;;;;5055154;28;8914;-63
2022/03/08 07:26:59;;;;;;;;;86.75;67.25;4.90;66.90;;;;;;5054912;28;8831;-63
2022/03/08 07:29:24;;;;;;;;;80.25;61.50;5.30;65.40;;;;;;5055106;28;9560;-63
2022/03/08 07:31:50;;;;;;;;;84.00;64.25;5.00;64.90;;;;;;5054822;28;9407;-65
2022/03/08 07:34:16;;;;;;;;;88.25;66.00;4.90;66.90;;;;;;5054753;28;8757;-62
2022/03/08 07:36:42;;;;;;;;;77.25;60.75;4.90;67.10;;;;;;5054570;28;8820;-64
2022/03/08 07:39:07;;;;;;;;;82.25;64.00;4.10;68.10;;;;;;5039311;28;8778;-64
2022/03/08 07:41:33;;;;;;;;;78.75;62.25;4.00;70.70;;;;;;5034703;28;8747;-63
2022/03/08 07:44:01;;;;;;;;;76.50;61.00;4.10;70.30;;;;;;5034619;28;8789;-63
2022/03/08 07:46:26;;;;;;;;;80.75;63.75;4.10;69.00;;;;;;5034603;28;8786;-65
2022/03/08 07:48:52;;;;;;;;;76.75;56.75;4.50;68.00;;;;;;5034802;28;8913;-65
2022/03/08 07:51:18;;;;;;;;;75.50;62.00;4.90;66.30;;;;;;5034619;28;8844;-63
2022/03/08 07:53:44;;;;;;;;;74.25;59.50;5.00;66.40;;;;;;5007655;28;8838;-63
2022/03/08 07:56:09;;;;;;;;;76.50;59.75;4.40;66.90;;;;;;4994951;28;8827;-64
2022/03/08 07:58:38;;;;;;;;;81.00;59.50;4.10;66.90;;;;;;4994264;28;8809;-64
2022/03/08 08:01:04;;;;;;;;;84.25;66.25;4.40;67.20;;;;;;4995116;28;8801;-62
2022/03/08 08:03:30;;;;;;;;;82.25;62.25;4.80;65.30;;;;;;4995096;28;8812;-62
2022/03/08 08:05:56;;;;;;;;;85.25;64.00;5.00;64.60;;;;;;4995015;28;8795;-62
2022/03/08 08:08:21;;;;;;;;;77.00;62.75;4.90;64.50;;;;;;4994987;28;8895;-62
2022/03/08 08:10:47;;;;;;;;;87.00;65.00;4.70;63.40;;;;;;4995032;28;8779;-62
2022/03/08 08:13:13;;;;;;;;;76.25;60.50;4.70;64.70;;;;;;4995225;28;8767;-62
2022/03/08 08:15:39;;;;;;;;;79.75;62.25;4.40;65.40;;;;;;4993854;28;8827;-62
2022/03/08 08:18:05;;;;;;;;;85.25;65.75;4.30;66.80;;;;;;4994829;28;8798;-62
2022/03/08 08:20:32;;;;;;;;;78.25;60.25;4.70;67.00;;;;;;4994865;28;8791;-62
2022/03/08 08:22:58;;;;;;;;;66.75;54.75;4.70;64.90;;;;;;4994700;28;8795;-62
2022/03/08 08:25:23;;;;;;;;;72.25;57.75;4.60;63.20;;;;;;4994846;28;8798;-62
2022/03/08 08:27:49;;;;;;;;;72.50;59.50;4.20;63.90;;;;;;4995005;28;8782;-62
2022/03/08 08:30:15;;;;;;;;;74.50;57.00;4.80;63.60;;;;;;4994750;28;8799;-62
2022/03/08 08:32:43;;;;;;;;;79.50;59.25;4.70;62.90;;;;;;4994992;28;8783;-62
2022/03/08 08:35:09;;;;;;;;;80.00;63.50;4.90;62.90;;;;;;4994841;28;8807;-62
2022/03/08 08:37:35;;;;;;;;;78.00;59.00;5.60;61.30;;;;;;4994721;28;8925;-62
2022/03/08 08:40:01;;;;;;;;;85.50;68.00;5.70;60.40;;;;;;4994662;28;8779;-62
2022/03/08 08:42:27;;;;;;;;;79.50;64.00;5.70;59.70;;;;;;4995039;28;8865;-62
2022/03/08 08:44:53;;;;;;;;;77.25;59.50;6.20;58.90;;;;;;4994609;28;8811;-63
2022/03/08 08:47:18;;;;;;;;;82.50;62.75;6.50;54.70;;;;;;4994521;28;8893;-62
2022/03/08 08:49:44;;;;;;;;;47.25;43.25;6.10;54.80;;;;;;4994582;28;8779;-62
2022/03/08 08:52:11;;;;;;;;;76.00;59.50;5.40;56.90;;;;;;4994585;28;8782;-62
2022/03/08 08:54:37;;;;;;;;;67.75;55.25;5.10;59.60;;;;;;5019232;28;8845;-62
2022/03/08 08:57:03;;;;;;;;;74.25;58.50;5.00;59.10;;;;;;5033719;28;8822;-62
2022/03/08 08:59:29;;;;;;;;;71.75;58.25;4.70;60.80;;;;;;5034022;28;8767;-62
2022/03/08 09:01:54;;;;;;;;;77.25;59.00;5.00;61.00;;;;;;5034003;28;8786;-62
2022/03/08 09:04:20;;;;;;;;;74.00;59.50;5.70;60.00;;;;;;5033991;28;8759;-62
2022/03/08 09:06:46;;;;;;;;;72.25;56.25;6.30;58.00;;;;;;5034017;28;8809;-62
2022/03/08 09:09:12;;;;;;;;;72.25;58.00;7.10;56.30;;;;;;5034174;28;8774;-62
2022/03/08 09:11:38;;;;;;;;;78.25;61.50;6.40;56.30;;;;;;5037488;28;8805;-62
2022/03/08 09:14:05;;;;;;;;;69.50;53.00;6.70;55.90;;;;;;5037585;28;8777;-62
2022/03/08 09:16:31;;;;;;;;;66.00;52.25;6.20;56.40;;;;;;5037410;28;8821;-62
2022/03/08 09:18:57;;;;;;;;;77.25;61.00;6.20;58.80;;;;;;5037349;28;8781;-62
2022/03/08 09:21:24;;;;;;;;;72.00;56.50;6.90;57.20;;;;;;5037220;28;8774;-62
2022/03/08 09:23:50;;;;;;;;;75.50;59.25;7.20;55.20;;;;;;5037315;28;8852;-62
2022/03/08 09:26:16;;;;;;;;;72.25;58.00;7.30;54.10;;;;;;5037220;28;8774;-62
2022/03/08 09:28:42;;;;;;;;;73.00;58.00;7.60;52.90;;;;;;5037105;28;9000;-62
2022/03/08 09:31:08;;;;;;;;;67.75;51.75;7.60;51.80;;;;;;5037101;28;8766;-62
2022/03/08 09:33:34;;;;;;;;;71.00;55.50;7.90;50.80;;;;;;5037118;28;8879;-62
2022/03/08 09:35:59;;;;;;;;;71.25;56.00;7.50;51.50;;;;;;5037270;28;8814;-62
2022/03/08 09:38:25;;;;;;;;;64.50;51.50;8.50;50.40;;;;;;5036977;28;8770;-62
2022/03/08 09:40:52;;;;;;;;;67.25;52.00;8.00;49.20;;;;;;5037165;28;8782;-62
2022/03/08 09:43:18;;;;;;;;;78.25;60.00;8.40;49.60;;;;;;5037038;28;9420;-62
2022/03/08 09:45:45;;;;;;;;;71.00;54.75;9.20;48.60;;;;;;5037127;28;8874;-62
2022/03/08 09:48:10;;;;;;;;;68.25;55.75;8.70;46.90;;;;;;5019224;28;8888;-62
2022/03/08 09:50:37;;;;;;;;;75.00;58.50;8.80;47.40;;;;;;5036690;28;8873;-62
2022/03/08 09:53:04;;;;;;;;;60.50;50.00;8.90;47.40;;;;;;5036460;28;8786;-63
2022/03/08 09:55:30;;;;;;;;;72.75;57.00;8.40;47.30;;;;;;5036546;28;8932;-63
2022/03/08 09:57:56;;;;;;;;;69.75;56.75;8.40;49.40;;;;;;5036528;28;8885;-62
2022/03/08 10:00:24;;;;;;;;;55.75;45.00;9.00;47.70;;;;;;5036597;28;9015;-63
2022/03/08 10:02:52;;;;;;;;;66.75;53.25;9.20;47.20;;;;;;5036770;28;8796;-62
2022/03/08 10:05:28;;;;;;;;;63.75;50.25;8.50;46.90;;;;;;5036466;28;8835;-62
2022/03/08 10:08:13;;;;;;;;;64.75;50.25;8.40;47.50;;;;;;5036504;28;8782;-63
2022/03/08 10:11:20;;;;;;;;;66.25;53.25;8.60;47.50;;;;;;5036678;28;9393;-62
2022/03/08 10:13:50;;;;;;;;;64.50;50.50;9.30;47.70;;;;;;5036527;28;9405;-62
2022/03/08 10:16:30;;;;;;;;;64.25;53.50;9.50;45.10;;;;;;5034524;28;8844;-62
2022/03/08 10:19:02;;;;;;;;;64.25;51.50;9.30;45.70;;;;;;5036523;28;8774;-62
2022/03/08 10:21:38;;;;;;;;;65.75;54.00;9.70;45.80;;;;;;5035667;28;8777;-62
2022/03/08 10:24:06;;;;;;;;;62.00;49.75;10.00;43.80;;;;;;5036068;28;8806;-62
2022/03/08 10:26:57;;;;;;;;;63.25;51.50;10.10;45.00;;;;;;5036124;28;8774;-62
2022/03/08 10:29:33;;;;;;;;;67.50;53.00;10.60;42.90;;;;;;5036131;28;8774;-63
2022/03/08 10:32:11;;;;;;;;;62.25;50.00;11.30;42.80;;;;;;5036324;28;8774;-63
2022/03/08 10:34:38;;;;;;;;;62.50;50.00;11.00;41.80;;;;;;5035979;28;8762;-63
2022/03/08 10:37:13;;;;;;;;;58.00;48.50;11.60;41.00;;;;;;5035856;28;8810;-63
2022/03/08 10:39:56;;;;;;;;;50.50;42.00;11.30;38.50;;;;;;5036090;28;8785;-63
2022/03/08 10:42:28;;;;;;;;;57.00;47.75;10.60;40.10;;;;;;5035794;28;8798;-62
2022/03/08 10:45:13;;;;;;;;;60.00;47.75;9.60;42.20;;;;;;5035764;28;8785;-63
2022/03/08 10:47:43;;;;;;;;;67.25;55.50;9.10;45.60;;;;;;5035890;28;8750;-63
2022/03/08 10:50:11;;;;;;;;;62.25;49.50;10.30;44.30;;;;;;5035631;28;8836;-63
2022/03/08 10:52:40;;;;;;;;;64.00;52.00;10.50;42.40;;;;;;5035565;28;8767;-63
2022/03/08 10:55:16;;;;;;;;;64.00;52.00;11.00;41.90;;;;;;5035431;28;8830;-63
2022/03/08 10:57:45;;;;;;;;;68.75;53.50;10.70;42.50;;;;;;5035619;28;8944;-63
2022/03/08 11:00:14;;;;;;;;;66.00;54.75;11.70;41.70;;;;;;5035373;28;8774;-63
2022/03/08 11:03:02;;;;;;;;;64.00;51.50;10.70;41.30;;;;;;5035127;28;8773;-63
2022/03/08 11:05:30;;;;;;;;;62.25;49.75;11.40;43.60;;;;;;5035550;28;8808;-63
2022/03/08 11:07:57;;;;;;;;;59.75;46.00;11.20;42.00;;;;;;5035072;28;8774;-63
2022/03/08 11:10:25;;;;;;;;;62.75;48.00;11.90;40.00;;;;;;5035569;28;8789;-63
2022/03/08 11:12:52;;;;;;;;;57.50;46.00;14.70;36.30;;;;;;5035343;28;9411;-63
2022/03/08 11:15:19;;;;;;;;;52.75;43.75;15.80;32.00;;;;;;5035373;28;8778;-63
2022/03/08 11:17:51;;;;;;;;;57.75;45.75;13.40;34.40;;;;;;5035371;28;8774;-63
2022/03/08 11:20:19;;;;;;;;;55.50;43.00;12.00;37.70;;;;;;5035050;28;8758;-63
2022/03/08 11:22:48;;;;;;;;;60.00;47.00;13.90;37.90;;;;;;5035309;28;8792;-63
2022/03/08 11:25:16;;;;;;;;;61.25;48.50;14.80;35.00;;;;;;5035393;28;8870;-63
2022/03/08 11:27:45;;;;;;;;;54.25;46.25;13.80;36.20;;;;;;5034979;28;8774;-63
2022/03/08 11:30:15;;;;;;;;;55.00;45.00;12.90;35.30;;;;;;5034839;28;8852;-63
2022/03/08 11:33:14;;;;;;;;;51.25;43.25;13.80;35.00;;;;;;5034615;28;8792;-63
2022/03/08 11:36:02;;;;;;;;;55.00;45.00;11.80;37.60;;;;;;5034749;28;8810;-63
2022/03/08 11:38:28;;;;;;;;;59.75;49.00;11.10;39.00;;;;;;5034847;28;8762;-62
2022/03/08 11:40:58;;;;;;;;;59.50;48.25;12.40;39.00;;;;;;5034690;28;8766;-63
2022/03/08 11:43:40;;;;;;;;;57.75;47.25;13.70;36.50;;;;;;5034839;28;8851;-63
2022/03/08 11:46:17;;;;;;;;;61.75;49.50;14.80;34.60;;;;;;5034944;28;9443;-63
2022/03/08 11:48:54;;;;;;;;;54.25;45.00;15.90;33.20;;;;;;5034691;28;8762;-63
2022/03/08 11:51:22;;;;;;;;;53.00;43.50;21.40;28.10;;;;;;5034863;28;9279;-63
2022/03/08 11:53:47;;;;;;;;;45.00;37.75;17.70;26.50;;;;;;5034521;28;8841;-63
2022/03/08 11:56:19;;;;;;;;;57.00;45.00;15.30;29.40;;;;;;5034742;28;8832;-63
2022/03/08 11:58:47;;;;;;;;;49.50;41.75;15.20;30.70;;;;;;5034590;28;8876;-63
2022/03/08 12:01:26;;;;;;;;;42.00;36.25;14.70;30.10;;;;;;5034494;28;8790;-63
2022/03/08 12:03:57;;;;;;;;;48.75;40.75;13.90;31.80;;;;;;5034505;28;8790;-63
2022/03/08 12:06:37;;;;;;;;;42.75;37.50;13.00;31.80;;;;;;5034576;28;8959;-63
2022/03/08 12:09:15;;;;;;;;;44.00;36.25;13.30;33.10;;;;;;5034435;28;8875;-63
2022/03/08 12:12:06;;;;;;;;;49.25;43.00;13.70;32.90;;;;;;5034397;28;8770;-63
2022/03/08 12:14:37;;;;;;;;;35.33;34.00;14.60;30.60;;;;;;5034391;28;8797;-63
2022/03/08 12:17:14;;;;;;;;;37.50;33.75;12.40;31.00;;;;;;5034027;28;8833;-63
2022/03/08 12:19:43;;;;;;;;;35.75;32.00;12.20;32.60;;;;;;5034066;28;8846;-63
2022/03/08 12:22:21;;;;;;;;;48.25;37.50;11.20;35.20;;;;;;5034045;28;8770;-63
2022/03/08 12:24:48;;;;;;;;;31.00;28.00;10.10;38.70;;;;;;5034466;28;8802;-63
2022/03/08 12:27:16;;;;;;;;;37.00;34.25;9.50;41.60;;;;;;5034480;28;9440;-63
2022/03/08 12:29:57;;;;;;;;;32.67;30.33;9.90;42.60;;;;;;5034446;28;9424;-63
2022/03/08 12:32:41;;;;;;;;;42.50;37.50;13.50;36.40;;;;;;5034250;28;8774;-63
2022/03/08 12:35:24;;;;;;;;;28.67;26.67;12.90;35.40;;;;;;5034234;28;8766;-63
2022/03/08 12:37:55;;;;;;;;;32.00;29.75;10.40;39.00;;;;;;5016771;28;8802;-63
2022/03/08 12:40:26;;;;;;;;;38.75;34.25;9.40;42.40;;;;;;5034041;28;8782;-63
2022/03/08 12:43:05;;;;;;;;;45.00;39.00;10.10;41.70;;;;;;5053816;28;8754;-63
2022/03/08 12:45:36;;;;;;;;;46.75;38.75;10.50;40.80;;;;;;5061654;28;9620;-63
2022/03/08 12:48:05;;;;;;;;;47.50;38.75;10.50;40.10;;;;;;5062520;28;8812;-63